Airfield :







YOU CAN JOIN US ON...

 
LOGIN :

Register | Disclaimer

   EN    FR    IT 

 









Legend :    VFR   Marginal VFR   IFR   Intensive IFR   Very Intensive IFR
Visi :
Ceiling :
>= 8 km
>= 3000ft
5 to 8 km
1000 to 3000 ft
1500m to 5 km
500 to 1000 ft
800 to 1500m
200 to 500 ft
< 800m
< 200 ft
Symbols :   Thunderstorms  Fog  Heavy snow  Heavy precipitations  Wind > 20 kt







- Airport Elevation : 1270 ft
- IATA code : YMT


CYMT - Chapais

CURRENT METAR :
  • 191800Z AUTO 22018G28KT 9SM SCT170 23/11 A3002 RMK SLP171 DENSITY ALT 2300FT

EXPIRED METARs :
  • 191700Z AUTO 20015G25KT 9SM SCT150 BKN170 22/12 A3003 RMK SLP175 DENSITY ALT 2200FT
  • 191600Z AUTO 21018G23KT 9SM CLR 20/12 A3005 RMK SLP180 DENSITY ALT 1900FT

TAF TAF CYMT
Valid from the 19 at 18:00 until the 20 at 00:00 UTC


191738Z 1918/1924 20015G25KT P6SM SCT150 BKN170
BECMG 1919/1921 23015G25KT
FM192100 23015G25KT P6SM BKN050
TEMPO 1921/1924 P6SM -SHRA OVC040
BECMG 1922/1924 23012G22KT RMK FCST BASED ON AUTO OBS. NXT FCST WILL BE ISSUED AT 201145Z
No reported NOTAMs for that airfield.



MET'MAP, your aeronautical weather chart ! - Copyright ORBIFLY December 2007 - Disclaimer

ORBIFLY MET'MAP TEAM :

Programming & Development : Alexandra Zaïnal
Concept & Development : Baudouin d'Aumeries
Co-Development & Prog : Marc-Olivier Méhu
Technical & hardware support : Manuel Goepfert

Contact : metmap@orbifly.com




SOURCES & CREDITS :

   NOAA